createdAt,value
2019-04-23T00:00:07.641Z,1011.36
2019-04-23T00:01:16.512Z,1011.34
2019-04-23T00:02:04.053Z,1011.39
2019-04-23T00:03:08.564Z,1011.40
2019-04-23T00:04:05.522Z,1011.38
2019-04-23T00:05:02.112Z,1011.36
2019-04-23T00:06:15.155Z,1011.31
2019-04-23T00:07:15.537Z,1011.35
2019-04-23T00:08:13.195Z,1011.29
2019-04-23T00:09:15.744Z,1011.34
2019-04-23T00:12:10.821Z,1011.33
2019-04-23T00:13:05.434Z,1011.29
2019-04-23T00:14:11.550Z,1011.24
2019-04-23T00:15:13.471Z,1011.25
2019-04-23T00:16:24.849Z,1011.22
2019-04-23T00:17:11.497Z,1011.20
2019-04-23T00:18:12.449Z,1011.23
2019-04-23T00:19:03.211Z,1011.19
2019-04-23T00:20:09.830Z,1011.23
2019-04-23T00:21:13.819Z,1011.21
2019-04-23T00:22:09.140Z,1011.27
2019-04-23T00:24:28.443Z,1011.22
2019-04-23T00:26:10.624Z,1011.19
2019-04-23T00:27:15.665Z,1011.21
2019-04-23T00:28:17.412Z,1011.19
2019-04-23T00:29:13.469Z,1011.22
2019-04-23T00:30:10.466Z,1011.18
2019-04-23T00:31:15.238Z,1011.18
2019-04-23T00:32:12.053Z,1011.17
2019-04-23T00:33:12.108Z,1011.16
2019-04-23T00:34:09.243Z,1011.15
2019-04-23T00:35:05.907Z,1011.12
2019-04-23T00:36:10.783Z,1011.16
2019-04-23T00:37:12.989Z,1011.10
2019-04-23T00:38:11.897Z,1011.10
2019-04-23T00:39:08.181Z,1011.11
2019-04-23T00:40:03.062Z,1011.11
2019-04-23T00:41:09.502Z,1011.12
2019-04-23T00:42:10.379Z,1011.07
2019-04-23T00:43:13.067Z,1011.06
2019-04-23T00:44:15.000Z,1011.13
2019-04-23T00:45:03.308Z,1011.07
2019-04-23T00:46:11.475Z,1011.08
2019-04-23T00:47:14.281Z,1011.08
2019-04-23T00:48:15.141Z,1011.12
2019-04-23T00:49:13.642Z,1011.05
2019-04-23T00:50:12.750Z,1011.07
2019-04-23T00:51:02.173Z,1011.00
2019-04-23T00:52:14.519Z,1010.99
2019-04-23T00:53:04.582Z,1010.98
2019-04-23T00:54:14.424Z,1011.00
2019-04-23T00:55:10.615Z,1010.94
2019-04-23T00:56:29.578Z,1010.96
2019-04-23T00:57:17.527Z,1010.95
2019-04-23T00:58:12.503Z,1010.95
2019-04-23T00:59:08.348Z,1010.98
2019-04-23T01:00:23.855Z,1010.93
2019-04-23T01:01:04.405Z,1010.96
2019-04-23T01:02:08.878Z,1010.92
2019-04-23T01:03:21.780Z,1010.92
2019-04-23T01:04:04.796Z,1010.90
2019-04-23T01:05:10.341Z,1010.92
2019-04-23T01:06:09.741Z,1010.91
2019-04-23T01:07:04.429Z,1010.96
2019-04-23T01:08:12.826Z,1010.95
2019-04-23T01:09:22.515Z,1010.90
2019-04-23T01:10:11.603Z,1010.91
2019-04-23T01:12:09.328Z,1010.92
2019-04-23T01:13:08.862Z,1010.89
2019-04-23T01:14:08.155Z,1010.89
2019-04-23T01:15:15.715Z,1010.87
2019-04-23T01:16:07.213Z,1010.88
2019-04-23T01:17:08.423Z,1010.86
2019-04-23T01:18:14.161Z,1010.80
2019-04-23T01:18:58.416Z,1010.91
2019-04-23T01:20:10.903Z,1010.84
2019-04-23T01:20:54.445Z,1010.85
2019-04-23T01:21:47.368Z,1010.80
2019-04-23T01:22:46.330Z,1010.82
2019-04-23T01:23:53.916Z,1010.78
2019-04-23T01:24:47.950Z,1010.86
2019-04-23T01:25:54.319Z,1010.75
2019-04-23T01:27:23.765Z,1010.76
2019-04-23T01:28:09.400Z,1010.72
2019-04-23T01:29:13.577Z,1010.74
2019-04-23T01:31:08.919Z,1010.73
2019-04-23T01:32:08.568Z,1010.68
2019-04-23T01:33:11.012Z,1010.65
2019-04-23T01:34:16.727Z,1010.61
2019-04-23T01:37:16.010Z,1010.59
2019-04-23T01:38:11.924Z,1010.59
2019-04-23T01:39:14.458Z,1010.62
2019-04-23T01:40:13.569Z,1010.59
2019-04-23T01:41:13.390Z,1010.64
2019-04-23T01:42:23.986Z,1010.58
2019-04-23T01:43:09.224Z,1010.55
2019-04-23T01:44:14.369Z,1010.49
2019-04-23T01:45:24.248Z,1010.52
2019-04-23T01:46:32.347Z,1010.51
2019-04-23T01:47:15.125Z,1010.48
2019-04-23T01:48:11.150Z,1010.56
2019-04-23T01:49:14.104Z,1010.54
2019-04-23T01:50:17.331Z,1010.54
2019-04-23T01:51:12.720Z,1010.45
2019-04-23T01:52:18.007Z,1010.47
2019-04-23T01:53:16.764Z,1010.45
2019-04-23T01:54:10.229Z,1010.41
2019-04-23T01:55:17.200Z,1010.44
2019-04-23T01:56:13.960Z,1010.40
2019-04-23T01:57:18.056Z,1010.38
2019-04-23T01:59:12.372Z,1010.38
2019-04-23T02:00:16.092Z,1010.40
2019-04-23T02:01:12.909Z,1010.39
2019-04-23T02:02:17.066Z,1010.36
2019-04-23T02:03:30.792Z,1010.31
2019-04-23T02:04:16.947Z,1010.37
2019-04-23T02:05:19.354Z,1010.37
2019-04-23T02:06:15.117Z,1010.38
2019-04-23T02:07:11.297Z,1010.31
2019-04-23T02:08:11.120Z,1010.38
2019-04-23T02:09:13.883Z,1010.31
2019-04-23T02:10:26.599Z,1010.33
2019-04-23T02:11:10.211Z,1010.36
2019-04-23T02:12:11.131Z,1010.29
2019-04-23T02:13:16.597Z,1010.25
2019-04-23T02:15:18.679Z,1010.28
2019-04-23T02:16:11.800Z,1010.29
2019-04-23T02:17:34.051Z,1010.24
2019-04-23T02:18:11.495Z,1010.24
2019-04-23T02:19:18.204Z,1010.26
2019-04-23T02:20:15.934Z,1010.24
2019-04-23T02:21:10.233Z,1010.25
2019-04-23T02:22:13.259Z,1010.31
2019-04-23T02:24:12.439Z,1010.25
2019-04-23T02:25:16.238Z,1010.32
2019-04-23T02:26:09.529Z,1010.15
2019-04-23T02:27:13.317Z,1010.23
2019-04-23T02:28:21.893Z,1010.27
2019-04-23T02:29:26.597Z,1010.23
2019-04-23T02:30:35.213Z,1010.21
2019-04-23T02:32:08.895Z,1010.20
2019-04-23T02:33:29.459Z,1010.26
2019-04-23T02:34:42.935Z,1010.17
2019-04-23T02:35:37.985Z,1010.21
2019-04-23T02:36:31.435Z,1010.19
2019-04-23T02:37:24.411Z,1010.20
2019-04-23T02:38:18.807Z,1010.18
2019-04-23T02:39:13.010Z,1010.26
2019-04-23T02:42:29.624Z,1010.21
2019-04-23T02:44:21.787Z,1010.22
2019-04-23T02:45:16.017Z,1010.24
2019-04-23T02:46:09.815Z,1010.23
2019-04-23T02:47:23.154Z,1010.22
2019-04-23T02:50:33.020Z,1010.10
2019-04-23T02:51:17.508Z,1010.19
2019-04-23T02:52:24.910Z,1010.18
2019-04-23T02:53:30.667Z,1010.16
2019-04-23T02:54:26.783Z,1010.19
2019-04-23T02:55:18.249Z,1010.16
2019-04-23T02:57:24.845Z,1010.10
2019-04-23T03:03:25.836Z,1010.06
2019-04-23T03:04:33.978Z,1010.02
2019-04-23T03:06:14.498Z,1010.01
2019-04-23T03:08:16.746Z,1010.00
2019-04-23T03:09:20.973Z,1009.99
2019-04-23T03:10:18.426Z,1009.95
2019-04-23T03:11:26.716Z,1009.96
2019-04-23T03:13:29.342Z,1009.86
2019-04-23T03:17:10.772Z,1009.93
2019-04-23T03:18:33.223Z,1009.86
2019-04-23T03:19:15.183Z,1009.87
2019-04-23T03:20:27.544Z,1009.90
2019-04-23T03:22:15.690Z,1009.87
2019-04-23T03:23:27.484Z,1009.88
2019-04-23T03:24:36.436Z,1009.84
2019-04-23T03:25:23.514Z,1009.89
2019-04-23T03:26:25.067Z,1009.92
2019-04-23T03:27:23.393Z,1009.86
2019-04-23T03:28:25.292Z,1009.89
2019-04-23T03:29:21.904Z,1009.85
2019-04-23T03:34:20.827Z,1009.83
2019-04-23T03:35:10.541Z,1009.82
2019-04-23T03:36:14.028Z,1009.93
2019-04-23T03:37:23.116Z,1009.89
2019-04-23T03:38:35.682Z,1009.89
2019-04-23T03:39:30.083Z,1009.82
2019-04-23T03:42:33.135Z,1009.73
2019-04-23T03:43:25.503Z,1009.79
2019-04-23T03:44:22.838Z,1009.78
2019-04-23T03:46:24.429Z,1009.74
2019-04-23T03:47:29.790Z,1009.73
2019-04-23T03:49:16.881Z,1009.78
2019-04-23T03:51:21.649Z,1009.82
2019-04-23T03:52:27.679Z,1009.83
2019-04-23T03:53:24.431Z,1009.82
2019-04-23T03:55:19.439Z,1009.82
2019-04-23T03:56:25.518Z,1009.78
2019-04-23T03:57:18.466Z,1009.75
2019-04-23T03:58:21.153Z,1009.79
2019-04-23T03:59:19.996Z,1009.76
2019-04-23T04:00:31.089Z,1009.80
2019-04-23T04:01:23.637Z,1009.80
2019-04-23T04:05:26.501Z,1009.75
2019-04-23T04:07:36.558Z,1009.72
2019-04-23T04:08:20.373Z,1009.73
2019-04-23T04:09:25.978Z,1009.76
2019-04-23T04:10:41.295Z,1009.75
2019-04-23T04:11:14.337Z,1009.83
2019-04-23T04:12:21.227Z,1009.79
2019-04-23T04:13:22.865Z,1009.80
2019-04-23T04:14:36.791Z,1009.77
2019-04-23T04:15:33.248Z,1009.78
2019-04-23T04:17:19.641Z,1009.84
2019-04-23T04:19:24.573Z,1009.78
2019-04-23T04:20:26.489Z,1009.76
2019-04-23T04:23:23.596Z,1009.77
2019-04-23T04:25:37.095Z,1009.77
2019-04-23T04:26:22.682Z,1009.74
2019-04-23T04:27:19.421Z,1009.71
2019-04-23T04:29:20.998Z,1009.74
2019-04-23T04:30:20.834Z,1009.73
2019-04-23T04:31:15.738Z,1009.76
2019-04-23T04:32:11.911Z,1009.71
2019-04-23T04:33:34.056Z,1009.71
2019-04-23T04:34:55.545Z,1009.83
2019-04-23T04:36:22.538Z,1009.72
2019-04-23T04:37:35.596Z,1009.73
2019-04-23T04:38:34.901Z,1009.72
2019-04-23T04:39:15.086Z,1009.73
2019-04-23T04:41:28.316Z,1009.71
2019-04-23T04:44:37.794Z,1009.77
2019-04-23T04:46:34.833Z,1009.85
2019-04-23T04:47:33.866Z,1009.81
2019-04-23T04:48:07.285Z,1009.75
2019-04-23T04:51:22.105Z,1009.78
2019-04-23T04:54:21.560Z,1009.70
2019-04-23T04:55:23.570Z,1009.73
2019-04-23T04:57:24.142Z,1009.69
2019-04-23T04:58:30.834Z,1009.73
2019-04-23T04:59:13.844Z,1009.70
2019-04-23T05:00:30.254Z,1009.60
2019-04-23T05:02:39.617Z,1009.61
2019-04-23T05:04:19.933Z,1009.61
2019-04-23T05:05:48.467Z,1009.65
2019-04-23T05:07:26.035Z,1009.60
2019-04-23T05:11:21.520Z,1009.46
2019-04-23T05:13:34.641Z,1009.53
2019-04-23T05:14:13.333Z,1009.58
2019-04-23T05:15:09.112Z,1009.48
2019-04-23T05:16:15.942Z,1009.47
2019-04-23T05:17:18.269Z,1009.55
2019-04-23T05:19:25.063Z,1009.47
2019-04-23T05:20:12.892Z,1009.47
2019-04-23T05:21:12.199Z,1009.52
2019-04-23T05:22:33.780Z,1009.45
2019-04-23T05:24:08.585Z,1009.45
2019-04-23T05:25:04.137Z,1009.45
2019-04-23T05:26:13.568Z,1009.45
2019-04-23T05:27:34.555Z,1009.48
2019-04-23T05:28:14.427Z,1009.44
2019-04-23T05:30:15.671Z,1009.48
2019-04-23T05:31:17.240Z,1009.46
2019-04-23T05:32:27.223Z,1009.43
2019-04-23T05:33:17.114Z,1009.48
2019-04-23T05:34:22.641Z,1009.49
2019-04-23T05:35:16.894Z,1009.48
2019-04-23T05:37:10.540Z,1009.65
2019-04-23T05:38:29.234Z,1009.76
2019-04-23T05:39:17.582Z,1009.80
2019-04-23T05:40:24.132Z,1009.83
2019-04-23T05:41:16.554Z,1009.84
2019-04-23T05:42:10.747Z,1009.85
2019-04-23T05:43:15.810Z,1009.87
2019-04-23T05:44:15.403Z,1009.84
2019-04-23T05:45:08.333Z,1009.89
2019-04-23T05:46:14.247Z,1009.90
2019-04-23T05:47:17.124Z,1009.94
2019-04-23T05:48:13.262Z,1009.77
2019-04-23T05:49:14.291Z,1009.95
2019-04-23T05:50:18.704Z,1009.85
2019-04-23T05:51:10.968Z,1009.87
2019-04-23T05:52:09.784Z,1009.77
2019-04-23T05:53:11.453Z,1009.83
2019-04-23T05:54:12.932Z,1009.88
2019-04-23T05:55:07.614Z,1009.83
2019-04-23T05:56:06.484Z,1009.77
2019-04-23T05:57:09.963Z,1009.78
2019-04-23T05:58:18.526Z,1009.75
2019-04-23T05:59:14.780Z,1009.85
2019-04-23T06:00:12.069Z,1009.87
2019-04-23T06:01:27.918Z,1009.82
2019-04-23T06:02:13.310Z,1009.94
2019-04-23T06:03:14.738Z,1009.96
2019-04-23T06:05:13.093Z,1010.12
2019-04-23T06:06:10.542Z,1010.16
2019-04-23T06:07:23.766Z,1010.22
2019-04-23T06:08:14.706Z,1010.32
2019-04-23T06:11:08.663Z,1010.50
2019-04-23T06:12:09.421Z,1010.66
2019-04-23T06:13:12.334Z,1010.62
2019-04-23T06:14:17.388Z,1010.59
2019-04-23T06:15:11.544Z,1010.61
2019-04-23T06:16:16.540Z,1010.43
2019-04-23T06:17:17.804Z,1010.26
2019-04-23T06:19:14.176Z,1010.34
2019-04-23T06:20:09.261Z,1010.32
2019-04-23T06:21:10.045Z,1010.29
2019-04-23T06:22:29.013Z,1010.33
2019-04-23T06:23:20.246Z,1010.50
2019-04-23T06:24:16.270Z,1010.60
2019-04-23T06:25:22.071Z,1010.65
2019-04-23T06:26:24.317Z,1010.57
2019-04-23T06:27:13.573Z,1010.42
2019-04-23T06:29:15.506Z,1010.11
2019-04-23T06:30:08.406Z,1010.11
2019-04-23T06:31:06.311Z,1010.09
2019-04-23T06:32:06.495Z,1010.05
2019-04-23T06:33:14.563Z,1010.04
2019-04-23T06:34:24.753Z,1009.93
2019-04-23T06:35:09.025Z,1009.95
2019-04-23T06:36:17.065Z,1009.92
2019-04-23T06:37:09.238Z,1009.93
2019-04-23T06:39:12.964Z,1009.78
2019-04-23T06:40:08.389Z,1009.78
2019-04-23T06:41:18.623Z,1009.70
2019-04-23T06:42:08.425Z,1009.75
2019-04-23T06:43:11.295Z,1009.79
2019-04-23T06:44:12.984Z,1009.62
2019-04-23T06:45:08.153Z,1009.74
2019-04-23T06:46:11.957Z,1009.77
2019-04-23T06:47:06.732Z,1009.82
2019-04-23T06:48:20.326Z,1009.72
2019-04-23T06:49:09.187Z,1009.70
2019-04-23T06:50:08.537Z,1009.72
2019-04-23T06:51:11.219Z,1009.61
2019-04-23T06:53:19.720Z,1009.65
2019-04-23T06:54:13.445Z,1009.62
2019-04-23T06:55:09.112Z,1009.68
2019-04-23T06:56:15.981Z,1009.70
2019-04-23T06:57:14.134Z,1009.72
2019-04-23T06:58:15.773Z,1009.68
2019-04-23T06:59:13.011Z,1009.61
2019-04-23T07:00:07.921Z,1009.65
2019-04-23T07:01:08.279Z,1009.68
2019-04-23T07:02:11.773Z,1009.64
2019-04-23T07:03:14.827Z,1009.65
2019-04-23T07:04:15.137Z,1009.66
2019-04-23T07:05:10.448Z,1009.65
2019-04-23T07:07:30.946Z,1009.61
2019-04-23T07:08:15.204Z,1009.60
2019-04-23T07:09:10.686Z,1009.62
2019-04-23T07:10:07.325Z,1009.58
2019-04-23T07:11:17.095Z,1009.55
2019-04-23T07:12:08.527Z,1009.54
2019-04-23T07:13:10.901Z,1009.57
2019-04-23T07:14:28.769Z,1009.54
2019-04-23T07:15:33.845Z,1009.55
2019-04-23T07:16:09.221Z,1009.51
2019-04-23T07:17:18.252Z,1009.45
2019-04-23T07:18:08.730Z,1009.41
2019-04-23T07:19:09.524Z,1009.46
2019-04-23T07:20:07.148Z,1009.53
2019-04-23T07:21:16.955Z,1009.41
2019-04-23T07:22:12.902Z,1009.44
2019-04-23T07:23:14.155Z,1009.39
2019-04-23T07:24:08.595Z,1009.40
2019-04-23T07:25:08.332Z,1009.41
2019-04-23T07:26:23.259Z,1009.32
2019-04-23T07:27:11.850Z,1009.28
2019-04-23T07:28:13.199Z,1009.35
2019-04-23T07:29:08.507Z,1009.41
2019-04-23T07:30:23.726Z,1009.43
2019-04-23T07:31:19.122Z,1009.41
2019-04-23T07:32:05.405Z,1009.40
2019-04-23T07:33:11.842Z,1009.38
2019-04-23T07:34:10.288Z,1009.30
2019-04-23T07:36:08.548Z,1009.43
2019-04-23T07:37:09.094Z,1009.35
2019-04-23T07:38:14.519Z,1009.42
2019-04-23T07:40:27.683Z,1009.45
2019-04-23T07:41:18.577Z,1009.44
2019-04-23T07:42:16.856Z,1009.41
2019-04-23T07:43:08.937Z,1009.35
2019-04-23T07:44:12.775Z,1009.32
2019-04-23T07:45:10.053Z,1009.33
2019-04-23T07:46:17.125Z,1009.23
2019-04-23T07:47:16.182Z,1009.28
2019-04-23T07:48:16.614Z,1009.33
2019-04-23T07:49:10.371Z,1009.32
2019-04-23T07:50:27.432Z,1009.25
2019-04-23T07:51:06.200Z,1009.28
2019-04-23T07:52:27.647Z,1009.30
2019-04-23T07:53:13.270Z,1009.22
2019-04-23T07:55:21.546Z,1009.28
2019-04-23T07:56:07.356Z,1009.38
2019-04-23T07:57:17.186Z,1009.30
2019-04-23T07:58:14.339Z,1009.30
2019-04-23T07:59:12.360Z,1009.32
2019-04-23T08:00:19.050Z,1009.34
2019-04-23T08:01:04.931Z,1009.34
2019-04-23T08:02:14.189Z,1009.28
2019-04-23T08:03:18.675Z,1009.28
2019-04-23T08:04:10.592Z,1009.22
2019-04-23T08:05:15.534Z,1009.28
2019-04-23T08:06:05.909Z,1009.19
2019-04-23T08:07:07.054Z,1009.24
2019-04-23T08:08:07.487Z,1009.12
2019-04-23T08:09:08.558Z,1009.22
2019-04-23T08:10:14.155Z,1009.24
2019-04-23T08:12:13.907Z,1009.25
2019-04-23T08:14:08.140Z,1009.10
2019-04-23T08:15:08.844Z,1009.18
2019-04-23T08:16:19.941Z,1009.13
2019-04-23T08:17:12.328Z,1009.29
2019-04-23T08:18:13.563Z,1009.16
2019-04-23T08:20:07.880Z,1009.21
2019-04-23T08:21:10.356Z,1009.00
2019-04-23T08:22:21.758Z,1009.14
2019-04-23T08:23:12.536Z,1008.87
2019-04-23T08:24:21.708Z,1009.10
2019-04-23T08:25:29.934Z,1008.50
2019-04-23T08:26:27.603Z,1008.47
2019-04-23T08:27:11.130Z,1008.55
2019-04-23T08:28:13.386Z,1008.64
2019-04-23T08:29:12.298Z,1008.68
2019-04-23T08:30:04.503Z,1008.55
2019-04-23T08:31:07.762Z,1008.46
2019-04-23T08:33:17.562Z,1008.49
2019-04-23T08:34:20.472Z,1008.58
2019-04-23T08:35:10.583Z,1008.41
2019-04-23T08:36:15.154Z,1008.36
2019-04-23T08:37:09.221Z,1008.30
2019-04-23T08:39:10.311Z,1008.38
2019-04-23T08:40:11.943Z,1008.43
2019-04-23T08:41:22.874Z,1008.30
2019-04-23T08:42:23.291Z,1008.49
2019-04-23T08:43:17.422Z,1008.31
2019-04-23T08:44:15.653Z,1008.31
2019-04-23T08:45:22.711Z,1008.21
2019-04-23T08:46:07.889Z,1008.18
2019-04-23T08:48:14.337Z,1008.12
2019-04-23T08:49:20.031Z,1008.13
2019-04-23T08:50:04.355Z,1007.96
2019-04-23T08:51:23.776Z,1008.17
2019-04-23T08:52:12.190Z,1008.16
2019-04-23T08:53:26.375Z,1007.97
2019-04-23T08:54:21.944Z,1008.27
2019-04-23T08:55:08.381Z,1008.18
2019-04-23T08:56:29.114Z,1008.20
2019-04-23T08:57:08.719Z,1008.20
2019-04-23T08:58:11.785Z,1008.02
2019-04-23T09:00:02.747Z,1008.12
2019-04-23T09:00:10.772Z,1008.19
2019-04-23T09:02:34.124Z,1007.93
2019-04-23T09:03:10.883Z,1008.05
2019-04-23T09:04:08.319Z,1008.01
2019-04-23T09:05:11.381Z,1007.94
2019-04-23T09:09:12.902Z,1007.95
2019-04-23T09:10:11.457Z,1007.98
2019-04-23T09:11:20.050Z,1007.92
2019-04-23T09:12:14.761Z,1007.91
2019-04-23T09:13:36.778Z,1007.88
2019-04-23T09:14:00.885Z,1007.82
2019-04-23T09:15:07.765Z,1007.77
2019-04-23T09:16:22.220Z,1007.80
2019-04-23T09:17:13.293Z,1007.84
2019-04-23T09:18:09.789Z,1007.97
2019-04-23T09:21:12.743Z,1007.81
2019-04-23T09:22:14.626Z,1007.85
2019-04-23T09:23:10.057Z,1008.02
2019-04-23T09:24:05.245Z,1008.04
2019-04-23T09:25:11.630Z,1007.61
2019-04-23T09:26:02.478Z,1007.80
2019-04-23T09:27:16.435Z,1007.53
2019-04-23T09:28:09.483Z,1007.74
2019-04-23T09:29:04.490Z,1007.57
2019-04-23T09:30:13.219Z,1007.52
2019-04-23T09:31:11.662Z,1007.54
2019-04-23T09:33:06.145Z,1007.70
2019-04-23T09:34:07.774Z,1007.52
2019-04-23T09:35:14.402Z,1007.67
2019-04-23T09:36:06.813Z,1007.54
2019-04-23T09:37:10.386Z,1007.57
2019-04-23T09:38:09.763Z,1007.54
2019-04-23T09:39:15.366Z,1007.48
2019-04-23T09:40:18.454Z,1007.74
2019-04-23T09:41:18.166Z,1007.52
2019-04-23T09:42:09.012Z,1007.63
2019-04-23T09:43:12.217Z,1007.58
2019-04-23T09:45:03.866Z,1007.53
2019-04-23T09:46:15.150Z,1007.41
2019-04-23T09:50:11.147Z,1007.28
2019-04-23T09:51:07.845Z,1007.18
2019-04-23T09:54:12.838Z,1007.24
2019-04-23T09:55:15.511Z,1007.30
2019-04-23T09:56:06.772Z,1007.40
2019-04-23T09:57:03.855Z,1007.35
2019-04-23T09:58:08.198Z,1007.26
2019-04-23T09:59:17.610Z,1007.50
2019-04-23T10:00:10.599Z,1007.25
2019-04-23T10:00:59.044Z,1007.36
2019-04-23T10:01:59.506Z,1007.17
2019-04-23T10:02:53.369Z,1007.42
2019-04-23T10:03:53.339Z,1007.28
2019-04-23T10:04:58.628Z,1007.28
2019-04-23T10:05:51.014Z,1007.12
2019-04-23T10:06:55.311Z,1007.15
2019-04-23T10:07:49.459Z,1007.11
2019-04-23T10:08:47.451Z,1007.16
2019-04-23T10:09:40.671Z,1007.11
2019-04-23T10:10:40.726Z,1007.15
2019-04-23T10:11:40.826Z,1007.05
2019-04-23T10:12:40.000Z,1007.07
2019-04-23T10:13:40.475Z,1007.03
2019-04-23T10:14:51.255Z,1007.11
2019-04-23T10:15:42.969Z,1007.05
2019-04-23T10:16:41.304Z,1007.06
2019-04-23T10:17:40.304Z,1006.95
2019-04-23T10:18:39.389Z,1007.21
2019-04-23T10:19:40.629Z,1006.94
2019-04-23T10:20:40.425Z,1006.98
2019-04-23T10:21:39.496Z,1006.86
2019-04-23T10:22:39.569Z,1007.15
2019-04-23T10:23:39.150Z,1007.21
2019-04-23T10:24:39.308Z,1006.95
2019-04-23T10:25:40.323Z,1006.90
2019-04-23T10:26:39.934Z,1006.96
2019-04-23T10:27:39.280Z,1006.71
2019-04-23T10:28:40.231Z,1006.84
2019-04-23T10:29:39.062Z,1007.02
2019-04-23T10:30:40.647Z,1006.95
2019-04-23T10:31:40.000Z,1006.76
2019-04-23T10:32:40.048Z,1006.89
2019-04-23T10:33:39.942Z,1006.93
2019-04-23T10:34:58.067Z,1006.97
2019-04-23T10:35:50.782Z,1006.80
2019-04-23T10:36:40.661Z,1006.77
2019-04-23T10:37:46.702Z,1006.89
2019-04-23T10:38:41.602Z,1006.56
2019-04-23T10:39:43.513Z,1006.81
2019-04-23T10:40:43.982Z,1006.83
2019-04-23T10:41:42.597Z,1006.73
2019-04-23T10:42:43.238Z,1006.74
2019-04-23T10:43:42.530Z,1006.64
2019-04-23T10:44:40.760Z,1006.62
2019-04-23T10:45:53.867Z,1006.81
2019-04-23T10:47:08.171Z,1006.64
2019-04-23T10:48:12.386Z,1006.67
2019-04-23T10:49:28.155Z,1006.57
2019-04-23T10:50:06.737Z,1006.73
2019-04-23T10:51:04.576Z,1006.79
2019-04-23T10:53:20.152Z,1006.73
2019-04-23T10:54:23.438Z,1007.14
2019-04-23T10:55:06.606Z,1006.54
2019-04-23T10:56:10.973Z,1006.48
2019-04-23T10:57:07.380Z,1006.79
2019-04-23T10:58:08.364Z,1007.23
2019-04-23T10:59:10.390Z,1006.83
2019-04-23T10:59:58.620Z,1007.13
2019-04-23T11:01:23.358Z,1006.59
2019-04-23T11:02:25.426Z,1006.92
2019-04-23T11:03:26.824Z,1007.15
2019-04-23T11:04:27.752Z,1007.10
2019-04-23T11:05:29.175Z,1007.26
2019-04-23T11:07:25.246Z,1007.16
2019-04-23T11:08:02.185Z,1007.11
2019-04-23T11:09:22.513Z,1007.07
2019-04-23T11:10:13.114Z,1007.16
2019-04-23T11:11:09.374Z,1007.13
2019-04-23T11:12:14.379Z,1007.14
2019-04-23T11:13:10.674Z,1006.89
2019-04-23T11:14:12.205Z,1006.60
2019-04-23T11:15:18.338Z,1006.65
2019-04-23T11:17:03.822Z,1007.25
2019-04-23T11:18:01.017Z,1007.13
2019-04-23T11:19:20.437Z,1007.12
2019-04-23T11:20:14.843Z,1007.00
2019-04-23T11:21:13.698Z,1007.11
2019-04-23T11:22:34.420Z,1007.01
2019-04-23T11:23:00.529Z,1007.00
2019-04-23T11:24:27.740Z,1007.03
2019-04-23T11:25:22.459Z,1007.08
2019-04-23T11:27:18.763Z,1007.06
2019-04-23T11:28:13.634Z,1006.57
2019-04-23T11:29:16.345Z,1006.97
2019-04-23T11:30:23.025Z,1007.00
2019-04-23T11:31:20.050Z,1006.98
2019-04-23T11:32:30.641Z,1006.96
2019-04-23T11:33:25.154Z,1007.01
2019-04-23T11:36:39.787Z,1007.16
2019-04-23T11:37:12.587Z,1007.03
2019-04-23T11:38:35.552Z,1007.16
2019-04-23T11:39:23.182Z,1006.20
2019-04-23T11:40:11.126Z,1007.19
2019-04-23T11:41:09.143Z,1006.95
2019-04-23T11:42:14.591Z,1007.20
2019-04-23T11:44:13.225Z,1007.08
2019-04-23T11:45:14.454Z,1006.98
2019-04-23T11:46:26.097Z,1006.95
2019-04-23T11:47:23.211Z,1007.14
2019-04-23T11:48:33.020Z,1007.04
2019-04-23T11:49:29.272Z,1006.91
2019-04-23T11:50:24.358Z,1006.57
2019-04-23T11:51:41.109Z,1007.17
2019-04-23T11:52:29.079Z,1007.24
2019-04-23T11:53:18.426Z,1007.09
2019-04-23T11:54:10.898Z,1007.14
2019-04-23T11:55:21.470Z,1006.95
2019-04-23T11:56:15.493Z,1007.06
2019-04-23T11:59:15.819Z,1006.13
2019-04-23T12:01:36.148Z,1007.24
2019-04-23T12:02:06.353Z,1007.13
2019-04-23T12:02:59.238Z,1006.97
2019-04-23T12:04:23.017Z,1006.92
2019-04-23T12:05:20.672Z,1006.56
2019-04-23T12:06:15.594Z,1006.97
2019-04-23T12:07:10.990Z,1007.16
2019-04-23T12:08:18.836Z,1007.15
2019-04-23T12:09:07.439Z,1006.53
2019-04-23T12:10:19.853Z,1007.00
2019-04-23T12:11:35.496Z,1007.10
2019-04-23T12:12:11.169Z,1007.26
2019-04-23T12:13:12.276Z,1006.10
2019-04-23T12:14:22.051Z,1006.14
2019-04-23T12:15:13.539Z,1006.53
2019-04-23T12:16:10.348Z,1006.50
2019-04-23T12:17:15.255Z,1006.22
2019-04-23T12:18:10.131Z,1006.36
2019-04-23T12:19:33.342Z,1007.29
2019-04-23T12:21:04.537Z,1007.19
2019-04-23T12:24:17.174Z,1006.97
2019-04-23T12:26:11.654Z,1007.16
2019-04-23T12:28:08.514Z,1007.45
2019-04-23T12:29:13.969Z,1007.53
2019-04-23T12:30:25.325Z,1006.77
2019-04-23T12:31:11.891Z,1007.46
2019-04-23T12:32:26.866Z,1007.52
2019-04-23T12:33:12.972Z,1007.18
2019-04-23T12:34:06.943Z,1006.89
2019-04-23T12:36:05.374Z,1006.13
2019-04-23T12:37:10.076Z,1006.16
2019-04-23T12:38:10.360Z,1006.26
2019-04-23T12:39:17.003Z,1007.97
2019-04-23T12:40:15.353Z,1007.46
2019-04-23T12:41:10.511Z,1007.36
2019-04-23T12:42:26.440Z,1007.65
2019-04-23T12:43:12.426Z,1006.44
2019-04-23T12:44:07.884Z,1006.32
2019-04-23T12:45:17.259Z,1007.69
2019-04-23T12:46:03.635Z,1007.80
2019-04-23T12:47:21.064Z,1007.85
2019-04-23T12:49:28.259Z,1007.44
2019-04-23T12:51:01.179Z,1006.03
2019-04-23T12:52:12.886Z,1008.25
2019-04-23T12:53:12.292Z,1006.10
2019-04-23T12:54:17.447Z,1007.38
2019-04-23T12:55:15.038Z,1008.83
2019-04-23T12:56:08.776Z,1008.43
2019-04-23T12:57:14.982Z,1007.25
2019-04-23T12:59:12.451Z,1005.75
2019-04-23T13:00:05.211Z,1005.85
2019-04-23T13:01:05.351Z,1005.93
2019-04-23T13:03:02.694Z,1006.44
2019-04-23T13:04:01.381Z,1006.33
2019-04-23T13:05:27.014Z,1006.16
2019-04-23T13:06:00.810Z,1005.89
2019-04-23T13:07:11.366Z,1005.71
2019-04-23T13:08:08.656Z,1005.57
2019-04-23T13:09:19.510Z,1005.58
2019-04-23T13:10:23.541Z,1005.56
2019-04-23T13:11:10.149Z,1005.70
2019-04-23T13:12:10.498Z,1006.42
2019-04-23T13:14:13.147Z,1006.81
2019-04-23T13:15:11.629Z,1005.70
2019-04-23T13:16:12.956Z,1005.81
2019-04-23T13:17:12.549Z,1005.86
2019-04-23T13:18:04.332Z,1005.92
2019-04-23T13:19:16.746Z,1006.19
2019-04-23T13:20:07.586Z,1005.60
2019-04-23T13:21:15.834Z,1005.47
2019-04-23T13:22:13.554Z,1005.36
2019-04-23T13:24:04.201Z,1005.36
2019-04-23T13:25:09.578Z,1005.39
2019-04-23T13:27:15.834Z,1005.38
2019-04-23T13:28:06.570Z,1005.51
2019-04-23T13:29:13.869Z,1006.64
2019-04-23T13:30:07.634Z,1006.48
2019-04-23T13:31:06.458Z,1005.54
2019-04-23T13:32:05.456Z,1005.65
2019-04-23T13:33:08.325Z,1005.47
2019-04-23T13:34:07.115Z,1007.05
2019-04-23T13:35:18.602Z,1009.60
2019-04-23T13:36:08.431Z,1010.03
2019-04-23T13:37:14.245Z,1006.16
2019-04-23T13:38:10.396Z,1006.21
2019-04-23T13:39:02.390Z,1006.35
2019-04-23T13:40:09.223Z,1005.66
2019-04-23T13:41:13.387Z,1005.49
2019-04-23T13:42:19.795Z,1005.49
2019-04-23T13:43:14.900Z,1005.84
2019-04-23T13:44:06.088Z,1008.20
2019-04-23T13:46:17.282Z,1005.52
2019-04-23T13:47:15.669Z,1005.50
2019-04-23T13:48:06.748Z,1005.24
2019-04-23T13:49:02.815Z,1005.39
2019-04-23T13:50:18.048Z,1005.33
2019-04-23T13:51:08.858Z,1005.55
2019-04-23T13:52:38.030Z,1006.19
2019-04-23T13:54:16.985Z,1005.67
2019-04-23T13:56:18.174Z,1006.22
2019-04-23T13:57:32.610Z,1005.21
2019-04-23T13:58:23.652Z,1005.23
2019-04-23T14:00:14.202Z,1005.18
2019-04-23T14:01:24.151Z,1005.21
2019-04-23T14:02:17.039Z,1005.28
2019-04-23T14:03:03.212Z,1005.17
2019-04-23T14:04:14.209Z,1005.23
2019-04-23T14:05:06.348Z,1005.06
2019-04-23T14:07:05.853Z,1004.90
2019-04-23T14:08:14.227Z,1004.88
2019-04-23T14:10:13.558Z,1005.15
2019-04-23T14:11:19.516Z,1005.20
2019-04-23T14:12:08.298Z,1004.98
2019-04-23T14:14:08.425Z,1010.62
2019-04-23T14:16:13.817Z,1004.98
2019-04-23T14:17:18.151Z,1004.98